Weather observations for the past three days for
Eastern Oregon Regional Airport at Pendleton
Metric (Imperial)
Date Time (pdt) Wind (kph) Vis. (km) Weather Sky Cond. Temperature (ºC) Relative Humidity Wind Chill (°C) Heat Index (°C) Pressure Precipitation (cm)
Air Dwpt 6 hour altimeter (cm) sea level (mb) 1 hr 3 hr 6 hr
Max. Min.
30 23:53 SE 11 16.09 Fair CLR 12.2 1.7 49% 76.15 1014.4
30 22:53 E 13 16.09 Fair CLR 13.3 0.6 24.4 13.3 42% 76.17 1014.6
30 21:53 SE 7 16.09 Fair CLR 15.6 1.1 38% 76.17 1014.7
30 20:53 NE 7 16.09 Fair CLR 16.7 1.7 37% 76.17 1014.7
30 19:53 Calm 16.09 Fair CLR 19.4 2.8 33% 76.17 1014.5
30 18:53 NW 9 16.09 Fair CLR 22.8 3.3 28% 76.15 1014.3
30 17:53 NW 13 16.09 Fair CLR 23.9 2.8 25% 25 76.15 1014.3
30 16:53 NW 11 16.09 Fair CLR 23.9 3.3 24.4 18.3 26% 25 76.17 1014.7
30 15:53 Vrbl 6 16.09 Fair CLR 23.3 3.3 27% 76.2 1015.1
30 14:53 NW 20 G 31 16.09 Fair CLR 23.3 3.3 27% 76.25 1015.6
30 13:53 SW 19 16.09 Fair CLR 23.3 2.8 26% 76.3 1016.0
30 12:53 W 22 G 33 16.09 Fair CLR 22.2 2.8 28% 76.33 1016.5
30 11:53 SW 17 16.09 Fair CLR 19.4 3.9 36% 76.4 1017.5
30 09:53 Calm 16.09 Fair CLR 16.7 3.9 43% 76.48 1018.6
30 08:53 S 7 16.09 Fair CLR 14.4 3.3 48% 76.48 1018.7
30 07:53 SE 9 16.09 Fair CLR 11.7 3.9 59% 76.48 1018.8
30 06:53 S 9 16.09 Fair CLR 9.4 3.9 69% 8 76.45 1018.6
30 05:53 S 9 16.09 Fair CLR 10 4.4 68% 9 76.43 1018.1
30 04:53 SE 7 16.09 Fair CLR 9.4 3.9 15 7.2 69% 9 76.43 1017.9
30 03:53 Calm 16.09 Fair CLR 8.3 3.9 74% 76.4 1017.6
30 02:53 SE 7 16.09 Fair CLR 9.4 4.4 71% 9 76.38 1017.3
30 01:53 S 11 16.09 Fair CLR 13.3 5 57% 76.35 1016.9
30 00:53 SW 13 16.09 Fair CLR 13.9 5.6 58% 76.35 1017.1
29 23:53 Calm 16.09 Partly Cloudy SCT080 13.9 5 55% 76.35 1016.7
29 22:53 W 19 16.09 A Few Clouds FEW080 15 5 21.7 15 51% 76.3 1016.2
29 21:53 Calm 16.09 Fair CLR 15.6 5 50% 76.3 1016.2
29 20:53 W 24 16.09 Fair CLR 16.1 4.4 46% 76.28 1015.8
29 19:53 W 20 G 37 16.09 Fair CLR 17.2 2.2 37% 76.2 1015.0
29 18:53 W 31 G 50 16.09 Fair CLR 19.4 3.9 36% 76.2 1014.7
29 17:53 W 31 G 44 16.09 Fair CLR 21.1 1.7 28% 76.17 1014.3
29 16:53 W 35 G 61 16.09 Fair and Breezy CLR 21.1 1.7 23.3 19.4 28% 76.17 1014.4
29 15:53 W 43 G 65 16.09 Fair and Windy CLR 22.2 1.7 26% 76.17 1014.3
29 14:53 W 35 G 59 16.09 Fair and Breezy CLR 22.2 2.2 27% 76.17 1014.2
29 12:53 W 24 G 46 16.09 A Few Clouds FEW060 20 5 38% 76.2 1014.7
29 11:53 W 31 16.09 Mostly Cloudy SCT055 BKN075 20 5 38% 76.23 1014.8
29 10:53 W 43 G 59 16.09 A Few Clouds and Windy FEW080 19.4 5 19.4 13.9 39% 76.2 1014.7
29 09:53 W 39 G 48 16.09 Overcast and Breezy OVC070 17.2 5 45% 76.2 1014.8
29 08:53 SW 22 16.09 Partly Cloudy FEW065 SCT100 17.2 6.7 50% 76.17 1014.5
29 07:53 SW 28 16.09 Mostly Cloudy BKN055 15.6 6.7 56% 76.17 1014.4
29 06:53 W 30 16.09 A Few Clouds FEW055 14.4 6.7 60% 76.17 1014.1
29 05:53 SW 20 16.09 Fair CLR 15 7.2 60% 76.12 1013.4
29 04:53 SW 15 16.09 Fair CLR 15.6 7.2 20.6 15 58% 76.1 1013.2
29 03:53 SW 15 16.09 Fair CLR 16.1 7.2 56% 76.1 1013.1
29 02:53 SW 17 16.09 Fair CLR 16.7 7.2 54% 76.07 1012.8
29 01:53 SW 26 16.09 Fair CLR 17.2 7.2 52% 76.05 1012.5
29 00:53 Calm 16.09 Fair CLR 17.8 7.2 50% 76 1011.9
28 23:53 SW 20 G 37 16.09 Mostly Cloudy BKN120 19.4 5 39% 76 1011.5
28 22:53 W 35 16.09 Fair and Breezy CLR 20.6 5.6 27.2 20 38% 75.92 1010.8
28 21:53 W 13 16.09 Fair CLR 20 3.9 35% 75.92 1010.8
28 20:53 NE 6 16.09 Fair CLR 20.6 1.1 27% 75.87 1010.3
28 19:53 Calm 16.09 Fair CLR 24.4 3.3 25% 25 75.84 1009.8
28 18:53 Calm 16.09 Fair CLR 26.1 3.3 23% 26 75.87 1010.1
28 17:53 W 6 16.09 Fair CLR 26.7 3.3 22% 26 75.9 1010.4
28 16:53 NW 20 16.09 Fair CLR 27.2 3.3 27.8 22.2 21% 26 75.92 1010.8
28 15:53 W 15 G 31 16.09 Fair CLR 27.2 4.4 23% 26 75.92 1011.0
28 14:53 NW 22 G 30 16.09 Fair CLR 26.7 5.6 26% 26 76 1011.7
28 13:53 NW 13 16.09 Fair CLR 26.1 5.6 27% 26 76.05 1012.5
28 12:53 NW 22 G 33 16.09 Fair CLR 24.4 8.3 36% 25 76.1 1013.3
28 11:53 W 15 16.09 Fair CLR 23.9 8.3 37% 25 76.17 1013.9
28 10:53 W 9 16.09 Fair CLR 22.2 8.3 22.2 11.1 41% 76.2 1014.6
28 09:53 W 11 16.09 Fair CLR 20.6 8.3 45% 76.23 1014.9
28 08:53 S 9 16.09 Fair CLR 18.3 6.1 45% 76.25 1015.2
28 07:53 SE 11 16.09 Fair CLR 14.4 5 53% 76.25 1015.5
28 06:53 SE 11 16.09 Fair CLR 12.2 4.4 59% 76.25 1015.3
28 05:53 SE 13 16.09 Fair CLR 11.7 4.4 61% 76.23 1015.1
28 04:53 SE 13 16.09 Fair CLR 12.8 4.4 20 11.1 57% 76.25 1015.2
28 03:53 SE 11 16.09 Fair CLR 12.8 5 59% 76.25 1015.2
28 02:53 SE 9 16.09 Fair CLR 13.3 4.4 55% 76.25 1015.1
28 01:53 Calm 16.09 Fair CLR 15 6.7 58% 76.25 1015.2
28 00:53 Calm 16.09 Fair CLR 16.1 6.7 54% 76.25 1015.1
Date Time (pdt) Wind (kph) Vis. (km) Weather Sky Cond. Air Dwpt Max. Min. Relative Humidity Wind Chill (°C) Heat Index (°C) altimeter (cm) sea level (mb) 1 hr 3 hr 6 hr
6 hour
Temperature (ºC) Pressure Precipitation (cm)